sensor_id;sensor_type;location;lat;lon;timestamp;temperature;humidity
47022;DHT22;32779;52.264;6.154;2023-06-01T00:00:55;11.70;99.90
47022;DHT22;32779;52.264;6.154;2023-06-01T00:03:21;11.60;99.90
47022;DHT22;32779;52.264;6.154;2023-06-01T00:05:47;11.60;99.90
47022;DHT22;32779;52.264;6.154;2023-06-01T00:08:13;11.60;99.90
47022;DHT22;32779;52.264;6.154;2023-06-01T00:10:38;11.50;99.90
47022;DHT22;32779;52.264;6.154;2023-06-01T00:13:04;11.50;99.90
47022;DHT22;32779;52.264;6.154;2023-06-01T00:15:29;11.50;99.90
47022;DHT22;32779;52.264;6.154;2023-06-01T00:17:55;11.60;99.90
47022;DHT22;32779;52.264;6.154;2023-06-01T00:20:21;11.60;99.90
47022;DHT22;32779;52.264;6.154;2023-06-01T00:22:49;11.70;99.90
47022;DHT22;32779;52.264;6.154;2023-06-01T00:25:14;11.70;99.90
47022;DHT22;32779;52.264;6.154;2023-06-01T00:27:40;11.70;99.90
47022;DHT22;32779;52.264;6.154;2023-06-01T00:30:06;11.70;99.90
47022;DHT22;32779;52.264;6.154;2023-06-01T00:32:32;11.70;99.90
47022;DHT22;32779;52.264;6.154;2023-06-01T00:34:57;11.70;99.90
47022;DHT22;32779;52.264;6.154;2023-06-01T00:37:23;11.70;99.90
47022;DHT22;32779;52.264;6.154;2023-06-01T00:39:49;11.70;99.90
47022;DHT22;32779;52.264;6.154;2023-06-01T00:42:14;11.70;99.90
47022;DHT22;32779;52.264;6.154;2023-06-01T00:44:40;11.70;99.90
47022;DHT22;32779;52.264;6.154;2023-06-01T00:47:06;11.80;99.90
47022;DHT22;32779;52.264;6.154;2023-06-01T00:49:33;11.70;99.90
47022;DHT22;32779;52.264;6.154;2023-06-01T00:51:59;11.70;99.90
47022;DHT22;32779;52.264;6.154;2023-06-01T00:54:25;11.70;99.90
47022;DHT22;32779;52.264;6.154;2023-06-01T00:56:50;11.70;99.90
47022;DHT22;32779;52.264;6.154;2023-06-01T00:59:17;11.70;99.90
47022;DHT22;32779;52.264;6.154;2023-06-01T01:01:42;11.70;99.90
47022;DHT22;32779;52.264;6.154;2023-06-01T01:04:08;11.70;99.90
47022;DHT22;32779;52.264;6.154;2023-06-01T01:13:06;11.70;99.90
47022;DHT22;32779;52.264;6.154;2023-06-01T01:15:50;11.70;99.90
47022;DHT22;32779;52.264;6.154;2023-06-01T01:18:28;11.70;99.90
47022;DHT22;32779;52.264;6.154;2023-06-01T01:21:02;11.70;99.90
47022;DHT22;32779;52.264;6.154;2023-06-01T01:26:08;11.70;99.90
47022;DHT22;32779;52.264;6.154;2023-06-01T01:31:09;11.60;99.90
47022;DHT22;32779;52.264;6.154;2023-06-01T01:33:36;11.60;99.90
47022;DHT22;32779;52.264;6.154;2023-06-01T01:36:02;11.60;99.90
47022;DHT22;32779;52.264;6.154;2023-06-01T01:38:29;11.50;99.90
47022;DHT22;32779;52.264;6.154;2023-06-01T01:40:54;11.50;99.90
47022;DHT22;32779;52.264;6.154;2023-06-01T01:43:22;11.50;99.90
47022;DHT22;32779;52.264;6.154;2023-06-01T01:45:54;11.50;99.90
47022;DHT22;32779;52.264;6.154;2023-06-01T01:48:31;11.50;99.90
47022;DHT22;32779;52.264;6.154;2023-06-01T01:51:07;11.50;99.90
47022;DHT22;32779;52.264;6.154;2023-06-01T01:53:36;11.50;99.90
47022;DHT22;32779;52.264;6.154;2023-06-01T01:56:03;11.40;99.90
47022;DHT22;32779;52.264;6.154;2023-06-01T01:58:29;11.40;99.90
47022;DHT22;32779;52.264;6.154;2023-06-01T02:00:55;11.30;99.90
47022;DHT22;32779;52.264;6.154;2023-06-01T02:03:22;11.30;99.90
47022;DHT22;32779;52.264;6.154;2023-06-01T02:05:47;11.30;99.90
47022;DHT22;32779;52.264;6.154;2023-06-01T02:08:13;11.20;99.90
47022;DHT22;32779;52.264;6.154;2023-06-01T02:10:39;11.20;99.90
47022;DHT22;32779;52.264;6.154;2023-06-01T02:13:06;11.20;99.90
47022;DHT22;32779;52.264;6.154;2023-06-01T02:15:31;11.20;99.90
47022;DHT22;32779;52.264;6.154;2023-06-01T02:17:57;11.10;99.90
47022;DHT22;32779;52.264;6.154;2023-06-01T02:20:24;11.20;99.90
47022;DHT22;32779;52.264;6.154;2023-06-01T02:22:50;11.20;99.90
47022;DHT22;32779;52.264;6.154;2023-06-01T02:25:16;11.20;99.90
47022;DHT22;32779;52.264;6.154;2023-06-01T02:27:41;11.20;99.90
47022;DHT22;32779;52.264;6.154;2023-06-01T02:30:07;11.20;99.90
47022;DHT22;32779;52.264;6.154;2023-06-01T02:32:34;11.20;99.90
47022;DHT22;32779;52.264;6.154;2023-06-01T02:35:00;11.20;99.90
47022;DHT22;32779;52.264;6.154;2023-06-01T02:37:25;11.20;99.90
47022;DHT22;32779;52.264;6.154;2023-06-01T02:39:51;11.30;99.90
47022;DHT22;32779;52.264;6.154;2023-06-01T02:42:17;11.30;99.90
47022;DHT22;32779;52.264;6.154;2023-06-01T02:44:42;11.30;99.90
47022;DHT22;32779;52.264;6.154;2023-06-01T02:47:08;11.30;99.90
47022;DHT22;32779;52.264;6.154;2023-06-01T02:49:35;11.30;99.90
47022;DHT22;32779;52.264;6.154;2023-06-01T02:52:00;11.30;99.90
47022;DHT22;32779;52.264;6.154;2023-06-01T02:54:26;11.20;99.90
47022;DHT22;32779;52.264;6.154;2023-06-01T02:56:51;11.20;99.90
47022;DHT22;32779;52.264;6.154;2023-06-01T02:59:17;11.20;99.90
47022;DHT22;32779;52.264;6.154;2023-06-01T03:01:42;11.30;99.90
47022;DHT22;32779;52.264;6.154;2023-06-01T03:04:08;11.30;99.90
47022;DHT22;32779;52.264;6.154;2023-06-01T03:06:36;11.30;99.90
47022;DHT22;32779;52.264;6.154;2023-06-01T03:09:06;11.40;99.90
47022;DHT22;32779;52.264;6.154;2023-06-01T03:11:41;11.40;99.90
47022;DHT22;32779;52.264;6.154;2023-06-01T03:14:07;11.30;99.90
47022;DHT22;32779;52.264;6.154;2023-06-01T03:16:32;11.30;99.90
47022;DHT22;32779;52.264;6.154;2023-06-01T03:18:58;11.30;99.90
47022;DHT22;32779;52.264;6.154;2023-06-01T03:21:23;11.30;99.90
47022;DHT22;32779;52.264;6.154;2023-06-01T03:23:50;11.30;99.90
47022;DHT22;32779;52.264;6.154;2023-06-01T03:26:15;11.30;99.90
47022;DHT22;32779;52.264;6.154;2023-06-01T03:28:44;11.30;99.90
47022;DHT22;32779;52.264;6.154;2023-06-01T03:31:09;11.40;99.90
47022;DHT22;32779;52.264;6.154;2023-06-01T03:33:37;11.50;99.90
47022;DHT22;32779;52.264;6.154;2023-06-01T03:36:03;11.50;99.90
47022;DHT22;32779;52.264;6.154;2023-06-01T03:38:30;11.50;99.90
47022;DHT22;32779;52.264;6.154;2023-06-01T03:40:55;11.50;99.90
47022;DHT22;32779;52.264;6.154;2023-06-01T03:43:21;11.50;99.90
47022;DHT22;32779;52.264;6.154;2023-06-01T03:45:47;11.40;99.90
47022;DHT22;32779;52.264;6.154;2023-06-01T03:48:12;11.30;99.90
47022;DHT22;32779;52.264;6.154;2023-06-01T03:50:38;11.30;99.90
47022;DHT22;32779;52.264;6.154;2023-06-01T03:53:03;11.20;99.90
47022;DHT22;32779;52.264;6.154;2023-06-01T03:55:29;11.20;99.90
47022;DHT22;32779;52.264;6.154;2023-06-01T03:57:56;11.20;99.90
47022;DHT22;32779;52.264;6.154;2023-06-01T04:00:21;11.20;99.90
47022;DHT22;32779;52.264;6.154;2023-06-01T04:02:54;11.20;99.90
47022;DHT22;32779;52.264;6.154;2023-06-01T04:05:20;11.20;99.90
47022;DHT22;32779;52.264;6.154;2023-06-01T04:07:48;11.20;99.90
47022;DHT22;32779;52.264;6.154;2023-06-01T04:10:14;11.20;99.90
47022;DHT22;32779;52.264;6.154;2023-06-01T04:12:45;11.10;99.90
47022;DHT22;32779;52.264;6.154;2023-06-01T04:15:12;11.10;99.90
47022;DHT22;32779;52.264;6.154;2023-06-01T04:17:39;11.10;99.90
47022;DHT22;32779;52.264;6.154;2023-06-01T04:20:08;11.20;99.90
47022;DHT22;32779;52.264;6.154;2023-06-01T04:22:37;11.20;99.90
47022;DHT22;32779;52.264;6.154;2023-06-01T04:25:08;11.20;99.90
47022;DHT22;32779;52.264;6.154;2023-06-01T04:27:35;11.20;99.90
47022;DHT22;32779;52.264;6.154;2023-06-01T04:30:07;11.30;99.90
47022;DHT22;32779;52.264;6.154;2023-06-01T04:32:36;11.30;99.90
47022;DHT22;32779;52.264;6.154;2023-06-01T04:35:04;11.30;99.90
47022;DHT22;32779;52.264;6.154;2023-06-01T04:37:36;11.40;99.90
47022;DHT22;32779;52.264;6.154;2023-06-01T04:40:03;11.40;99.90
47022;DHT22;32779;52.264;6.154;2023-06-01T04:42:33;11.40;99.90
47022;DHT22;32779;52.264;6.154;2023-06-01T04:45:03;11.50;99.90
47022;DHT22;32779;52.264;6.154;2023-06-01T04:47:30;11.50;99.90
47022;DHT22;32779;52.264;6.154;2023-06-01T04:49:57;11.40;99.90
47022;DHT22;32779;52.264;6.154;2023-06-01T04:52:22;11.40;99.90
47022;DHT22;32779;52.264;6.154;2023-06-01T04:54:48;11.40;99.90
47022;DHT22;32779;52.264;6.154;2023-06-01T04:57:14;11.40;99.90
47022;DHT22;32779;52.264;6.154;2023-06-01T04:59:40;11.40;99.90
47022;DHT22;32779;52.264;6.154;2023-06-01T05:02:07;11.50;99.90
47022;DHT22;32779;52.264;6.154;2023-06-01T05:04:32;11.50;99.90
47022;DHT22;32779;52.264;6.154;2023-06-01T05:06:58;11.50;99.90
47022;DHT22;32779;52.264;6.154;2023-06-01T05:09:23;11.50;99.90
47022;DHT22;32779;52.264;6.154;2023-06-01T05:11:50;11.50;99.90
47022;DHT22;32779;52.264;6.154;2023-06-01T05:14:16;11.50;99.90
47022;DHT22;32779;52.264;6.154;2023-06-01T05:16:42;11.50;99.90
47022;DHT22;32779;52.264;6.154;2023-06-01T05:19:07;11.50;99.90
47022;DHT22;32779;52.264;6.154;2023-06-01T05:21:33;11.50;99.90
47022;DHT22;32779;52.264;6.154;2023-06-01T05:23:59;11.60;99.90
47022;DHT22;32779;52.264;6.154;2023-06-01T05:26:24;11.50;99.90
47022;DHT22;32779;52.264;6.154;2023-06-01T05:28:50;11.60;99.90
47022;DHT22;32779;52.264;6.154;2023-06-01T05:31:16;11.60;99.90
47022;DHT22;32779;52.264;6.154;2023-06-01T05:33:42;11.70;99.90
47022;DHT22;32779;52.264;6.154;2023-06-01T05:36:08;11.70;99.90
47022;DHT22;32779;52.264;6.154;2023-06-01T05:38:33;11.70;99.90
47022;DHT22;32779;52.264;6.154;2023-06-01T05:40:59;11.80;99.90
47022;DHT22;32779;52.264;6.154;2023-06-01T05:43:24;11.90;99.90
47022;DHT22;32779;52.264;6.154;2023-06-01T05:45:50;12.00;99.90
47022;DHT22;32779;52.264;6.154;2023-06-01T05:48:15;12.00;99.90
47022;DHT22;32779;52.264;6.154;2023-06-01T05:50:41;12.00;99.90
47022;DHT22;32779;52.264;6.154;2023-06-01T05:53:08;12.10;99.90
47022;DHT22;32779;52.264;6.154;2023-06-01T05:55:33;12.10;99.90
47022;DHT22;32779;52.264;6.154;2023-06-01T05:57:59;12.10;99.90
47022;DHT22;32779;52.264;6.154;2023-06-01T06:00:25;12.10;99.90
47022;DHT22;32779;52.264;6.154;2023-06-01T06:02:51;12.20;99.90
47022;DHT22;32779;52.264;6.154;2023-06-01T06:05:16;12.20;99.90
47022;DHT22;32779;52.264;6.154;2023-06-01T06:07:42;12.20;99.90
47022;DHT22;32779;52.264;6.154;2023-06-01T06:10:08;12.30;99.90
47022;DHT22;32779;52.264;6.154;2023-06-01T06:12:34;12.30;99.90
47022;DHT22;32779;52.264;6.154;2023-06-01T06:14:59;12.20;99.90
47022;DHT22;32779;52.264;6.154;2023-06-01T06:17:25;12.20;99.90
47022;DHT22;32779;52.264;6.154;2023-06-01T06:19:50;12.30;99.90
47022;DHT22;32779;52.264;6.154;2023-06-01T06:22:16;12.30;99.90
47022;DHT22;32779;52.264;6.154;2023-06-01T06:24:42;12.30;99.90
47022;DHT22;32779;52.264;6.154;2023-06-01T06:27:09;12.20;99.90
47022;DHT22;32779;52.264;6.154;2023-06-01T06:29:34;12.20;99.90
47022;DHT22;32779;52.264;6.154;2023-06-01T06:32:00;12.30;99.90
47022;DHT22;32779;52.264;6.154;2023-06-01T06:34:26;12.30;99.90
47022;DHT22;32779;52.264;6.154;2023-06-01T06:36:52;12.30;99.90
47022;DHT22;32779;52.264;6.154;2023-06-01T06:39:20;12.30;99.90
47022;DHT22;32779;52.264;6.154;2023-06-01T06:41:46;12.30;99.90
47022;DHT22;32779;52.264;6.154;2023-06-01T06:44:12;12.30;99.90
47022;DHT22;32779;52.264;6.154;2023-06-01T06:46:38;12.40;99.90
47022;DHT22;32779;52.264;6.154;2023-06-01T06:49:03;12.50;99.90
47022;DHT22;32779;52.264;6.154;2023-06-01T06:51:29;12.60;99.90
47022;DHT22;32779;52.264;6.154;2023-06-01T06:53:54;12.60;99.90
47022;DHT22;32779;52.264;6.154;2023-06-01T06:56:20;12.70;99.90
47022;DHT22;32779;52.264;6.154;2023-06-01T06:58:46;12.80;99.90
47022;DHT22;32779;52.264;6.154;2023-06-01T07:01:12;12.80;99.90
47022;DHT22;32779;52.264;6.154;2023-06-01T07:03:37;12.80;99.90
47022;DHT22;32779;52.264;6.154;2023-06-01T07:06:04;12.70;99.90
47022;DHT22;32779;52.264;6.154;2023-06-01T07:08:30;12.70;99.90
47022;DHT22;32779;52.264;6.154;2023-06-01T07:11:00;12.70;99.90
47022;DHT22;32779;52.264;6.154;2023-06-01T07:13:25;12.80;99.90
47022;DHT22;32779;52.264;6.154;2023-06-01T07:15:52;12.90;99.90
47022;DHT22;32779;52.264;6.154;2023-06-01T07:18:18;13.00;99.90
47022;DHT22;32779;52.264;6.154;2023-06-01T07:20:43;13.20;99.90
47022;DHT22;32779;52.264;6.154;2023-06-01T07:23:09;13.20;99.90
47022;DHT22;32779;52.264;6.154;2023-06-01T07:25:37;13.30;99.90
47022;DHT22;32779;52.264;6.154;2023-06-01T07:28:03;13.50;99.90
47022;DHT22;32779;52.264;6.154;2023-06-01T07:30:33;13.60;99.90
47022;DHT22;32779;52.264;6.154;2023-06-01T07:32:58;13.60;99.90
47022;DHT22;32779;52.264;6.154;2023-06-01T07:35:24;13.80;99.90
47022;DHT22;32779;52.264;6.154;2023-06-01T07:37:50;13.80;99.90
47022;DHT22;32779;52.264;6.154;2023-06-01T07:40:16;13.80;99.90
47022;DHT22;32779;52.264;6.154;2023-06-01T07:42:41;14.00;99.90
47022;DHT22;32779;52.264;6.154;2023-06-01T07:45:07;14.10;99.90
47022;DHT22;32779;52.264;6.154;2023-06-01T07:47:34;14.20;99.90
47022;DHT22;32779;52.264;6.154;2023-06-01T07:50:00;14.20;99.90
47022;DHT22;32779;52.264;6.154;2023-06-01T07:52:26;14.20;99.90
47022;DHT22;32779;52.264;6.154;2023-06-01T07:54:51;14.20;99.90
47022;DHT22;32779;52.264;6.154;2023-06-01T07:57:17;14.20;99.90
47022;DHT22;32779;52.264;6.154;2023-06-01T07:59:42;14.30;99.90
47022;DHT22;32779;52.264;6.154;2023-06-01T08:02:08;14.30;99.90
47022;DHT22;32779;52.264;6.154;2023-06-01T08:04:36;14.20;99.90
47022;DHT22;32779;52.264;6.154;2023-06-01T08:07:03;14.40;99.90
47022;DHT22;32779;52.264;6.154;2023-06-01T08:09:29;14.60;99.90
47022;DHT22;32779;52.264;6.154;2023-06-01T08:11:55;14.80;99.90
47022;DHT22;32779;52.264;6.154;2023-06-01T08:14:21;14.80;99.90
47022;DHT22;32779;52.264;6.154;2023-06-01T08:16:47;14.60;99.90
47022;DHT22;32779;52.264;6.154;2023-06-01T08:19:13;14.50;99.90
47022;DHT22;32779;52.264;6.154;2023-06-01T08:21:38;14.60;99.90
47022;DHT22;32779;52.264;6.154;2023-06-01T08:24:06;14.70;99.90
47022;DHT22;32779;52.264;6.154;2023-06-01T08:26:33;14.80;99.90
47022;DHT22;32779;52.264;6.154;2023-06-01T08:29:00;14.90;99.90
47022;DHT22;32779;52.264;6.154;2023-06-01T08:31:25;15.10;99.90
47022;DHT22;32779;52.264;6.154;2023-06-01T08:33:51;15.10;99.90
47022;DHT22;32779;52.264;6.154;2023-06-01T08:36:18;15.10;99.90
47022;DHT22;32779;52.264;6.154;2023-06-01T08:38:44;15.40;99.90
47022;DHT22;32779;52.264;6.154;2023-06-01T08:44:03;15.80;99.90
47022;DHT22;32779;52.264;6.154;2023-06-01T08:46:31;16.00;99.90
47022;DHT22;32779;52.264;6.154;2023-06-01T08:48:58;16.40;99.90
47022;DHT22;32779;52.264;6.154;2023-06-01T08:51:25;16.50;99.90
47022;DHT22;32779;52.264;6.154;2023-06-01T08:53:52;16.70;99.90
47022;DHT22;32779;52.264;6.154;2023-06-01T08:56:19;16.80;99.90
47022;DHT22;32779;52.264;6.154;2023-06-01T08:58:44;16.80;99.90
47022;DHT22;32779;52.264;6.154;2023-06-01T09:01:17;16.80;99.90
47022;DHT22;32779;52.264;6.154;2023-06-01T09:03:44;16.60;99.90
47022;DHT22;32779;52.264;6.154;2023-06-01T09:06:10;16.60;99.90
47022;DHT22;32779;52.264;6.154;2023-06-01T09:08:36;16.30;99.90
47022;DHT22;32779;52.264;6.154;2023-06-01T09:11:01;16.30;99.90
47022;DHT22;32779;52.264;6.154;2023-06-01T09:13:34;16.30;99.90
47022;DHT22;32779;52.264;6.154;2023-06-01T09:16:00;16.30;99.90
47022;DHT22;32779;52.264;6.154;2023-06-01T09:18:25;16.30;99.90
47022;DHT22;32779;52.264;6.154;2023-06-01T09:20:52;16.20;99.90
47022;DHT22;32779;52.264;6.154;2023-06-01T09:23:26;16.30;99.90
47022;DHT22;32779;52.264;6.154;2023-06-01T09:26:08;16.70;99.90
47022;DHT22;32779;52.264;6.154;2023-06-01T09:31:35;17.30;99.90
47022;DHT22;32779;52.264;6.154;2023-06-01T09:34:02;17.50;99.90
47022;DHT22;32779;52.264;6.154;2023-06-01T09:36:27;17.30;99.90
47022;DHT22;32779;52.264;6.154;2023-06-01T09:38:59;17.20;99.90
47022;DHT22;32779;52.264;6.154;2023-06-01T09:41:25;17.20;99.90
47022;DHT22;32779;52.264;6.154;2023-06-01T09:43:51;17.20;99.80
47022;DHT22;32779;52.264;6.154;2023-06-01T09:46:16;17.10;99.90
47022;DHT22;32779;52.264;6.154;2023-06-01T09:48:43;17.10;99.90
47022;DHT22;32779;52.264;6.154;2023-06-01T09:51:24;17.20;99.90
47022;DHT22;32779;52.264;6.154;2023-06-01T09:53:54;17.10;99.90
47022;DHT22;32779;52.264;6.154;2023-06-01T09:56:20;17.20;99.90
47022;DHT22;32779;52.264;6.154;2023-06-01T09:58:46;17.20;99.90
47022;DHT22;32779;52.264;6.154;2023-06-01T10:01:11;17.10;99.90
47022;DHT22;32779;52.264;6.154;2023-06-01T10:03:41;17.00;99.90
47022;DHT22;32779;52.264;6.154;2023-06-01T10:06:10;17.10;99.90
47022;DHT22;32779;52.264;6.154;2023-06-01T10:08:36;17.30;99.90
47022;DHT22;32779;52.264;6.154;2023-06-01T10:11:03;17.30;99.90
47022;DHT22;32779;52.264;6.154;2023-06-01T10:13:29;17.30;99.90
47022;DHT22;32779;52.264;6.154;2023-06-01T10:15:56;17.40;99.70
47022;DHT22;32779;52.264;6.154;2023-06-01T10:18:21;17.30;99.90
47022;DHT22;32779;52.264;6.154;2023-06-01T10:20:47;17.20;99.80
47022;DHT22;32779;52.264;6.154;2023-06-01T10:23:13;17.20;99.90
47022;DHT22;32779;52.264;6.154;2023-06-01T10:25:47;17.30;99.90
47022;DHT22;32779;52.264;6.154;2023-06-01T10:28:16;17.30;99.90
47022;DHT22;32779;52.264;6.154;2023-06-01T10:30:42;17.30;99.90
47022;DHT22;32779;52.264;6.154;2023-06-01T10:33:08;17.50;99.90
47022;DHT22;32779;52.264;6.154;2023-06-01T10:40:42;17.50;98.90
47022;DHT22;32779;52.264;6.154;2023-06-01T10:46:00;17.60;98.80
47022;DHT22;32779;52.264;6.154;2023-06-01T10:51:17;17.70;99.50
47022;DHT22;32779;52.264;6.154;2023-06-01T10:53:43;17.40;99.40
47022;DHT22;32779;52.264;6.154;2023-06-01T10:56:18;17.50;99.00
47022;DHT22;32779;52.264;6.154;2023-06-01T10:58:46;17.40;99.20
47022;DHT22;32779;52.264;6.154;2023-06-01T11:01:18;17.40;99.30
47022;DHT22;32779;52.264;6.154;2023-06-01T11:03:46;17.50;99.90
47022;DHT22;32779;52.264;6.154;2023-06-01T11:06:28;17.70;99.80
47022;DHT22;32779;52.264;6.154;2023-06-01T11:08:56;17.70;99.40
47022;DHT22;32779;52.264;6.154;2023-06-01T11:11:21;17.70;99.00
47022;DHT22;32779;52.264;6.154;2023-06-01T11:16:32;17.70;99.80
47022;DHT22;32779;52.264;6.154;2023-06-01T11:18:59;17.60;99.90
47022;DHT22;32779;52.264;6.154;2023-06-01T11:23:54;17.70;99.90
47022;DHT22;32779;52.264;6.154;2023-06-01T11:26:23;17.60;99.90
47022;DHT22;32779;52.264;6.154;2023-06-01T11:28:52;17.70;99.50
47022;DHT22;32779;52.264;6.154;2023-06-01T11:31:19;17.60;99.40
47022;DHT22;32779;52.264;6.154;2023-06-01T11:33:50;17.60;99.90
47022;DHT22;32779;52.264;6.154;2023-06-01T11:36:26;17.80;99.90
47022;DHT22;32779;52.264;6.154;2023-06-01T11:38:53;18.00;99.80
47022;DHT22;32779;52.264;6.154;2023-06-01T11:41:20;18.20;99.20
47022;DHT22;32779;52.264;6.154;2023-06-01T11:43:55;18.30;99.20
47022;DHT22;32779;52.264;6.154;2023-06-01T11:46:21;18.40;99.10
47022;DHT22;32779;52.264;6.154;2023-06-01T11:48:59;18.60;98.80
47022;DHT22;32779;52.264;6.154;2023-06-01T11:51:37;18.50;99.00
47022;DHT22;32779;52.264;6.154;2023-06-01T11:54:04;18.30;98.60
47022;DHT22;32779;52.264;6.154;2023-06-01T11:56:31;18.30;98.90
47022;DHT22;32779;52.264;6.154;2023-06-01T11:59:02;18.10;99.50
47022;DHT22;32779;52.264;6.154;2023-06-01T12:01:33;18.10;99.60
47022;DHT22;32779;52.264;6.154;2023-06-01T12:03:59;18.10;99.90
47022;DHT22;32779;52.264;6.154;2023-06-01T12:06:27;18.20;99.90
47022;DHT22;32779;52.264;6.154;2023-06-01T12:08:55;18.10;99.90
47022;DHT22;32779;52.264;6.154;2023-06-01T12:11:25;18.10;99.90
47022;DHT22;32779;52.264;6.154;2023-06-01T12:13:54;18.10;99.90
47022;DHT22;32779;52.264;6.154;2023-06-01T12:16:21;18.00;99.90
47022;DHT22;32779;52.264;6.154;2023-06-01T12:18:47;17.80;99.90
47022;DHT22;32779;52.264;6.154;2023-06-01T12:21:13;17.80;99.90
47022;DHT22;32779;52.264;6.154;2023-06-01T12:23:39;17.60;99.90
47022;DHT22;32779;52.264;6.154;2023-06-01T12:26:05;17.40;99.90
47022;DHT22;32779;52.264;6.154;2023-06-01T12:28:51;17.20;99.90
47022;DHT22;32779;52.264;6.154;2023-06-01T12:31:19;17.20;99.90
47022;DHT22;32779;52.264;6.154;2023-06-01T12:33:45;17.20;99.90
47022;DHT22;32779;52.264;6.154;2023-06-01T12:36:34;17.10;99.90
47022;DHT22;32779;52.264;6.154;2023-06-01T12:39:01;17.00;99.90
47022;DHT22;32779;52.264;6.154;2023-06-01T12:41:29;16.90;99.90
47022;DHT22;32779;52.264;6.154;2023-06-01T12:43:55;16.70;99.90
47022;DHT22;32779;52.264;6.154;2023-06-01T12:46:25;16.50;99.90
47022;DHT22;32779;52.264;6.154;2023-06-01T12:48:53;16.50;99.90
47022;DHT22;32779;52.264;6.154;2023-06-01T12:51:19;16.50;99.90
47022;DHT22;32779;52.264;6.154;2023-06-01T12:53:45;16.60;99.90
47022;DHT22;32779;52.264;6.154;2023-06-01T12:56:11;16.70;99.90
47022;DHT22;32779;52.264;6.154;2023-06-01T12:58:37;16.70;99.90
47022;DHT22;32779;52.264;6.154;2023-06-01T13:01:03;16.70;99.90
47022;DHT22;32779;52.264;6.154;2023-06-01T13:03:29;16.70;99.90
47022;DHT22;32779;52.264;6.154;2023-06-01T13:05:55;16.70;99.90
47022;DHT22;32779;52.264;6.154;2023-06-01T13:08:21;16.70;99.90
47022;DHT22;32779;52.264;6.154;2023-06-01T13:10:48;16.70;99.90
47022;DHT22;32779;52.264;6.154;2023-06-01T13:13:13;16.70;99.90
47022;DHT22;32779;52.264;6.154;2023-06-01T13:15:40;16.70;99.90
47022;DHT22;32779;52.264;6.154;2023-06-01T13:18:06;16.80;99.90
47022;DHT22;32779;52.264;6.154;2023-06-01T13:20:31;16.80;99.90
47022;DHT22;32779;52.264;6.154;2023-06-01T13:22:57;16.80;99.90
47022;DHT22;32779;52.264;6.154;2023-06-01T13:25:22;16.70;99.90
47022;DHT22;32779;52.264;6.154;2023-06-01T13:27:48;16.60;99.90
47022;DHT22;32779;52.264;6.154;2023-06-01T13:30:14;16.70;99.90
47022;DHT22;32779;52.264;6.154;2023-06-01T13:32:40;16.60;99.90
47022;DHT22;32779;52.264;6.154;2023-06-01T13:35:05;16.60;99.90
47022;DHT22;32779;52.264;6.154;2023-06-01T13:37:31;16.60;99.90
47022;DHT22;32779;52.264;6.154;2023-06-01T13:39:57;16.60;99.90
47022;DHT22;32779;52.264;6.154;2023-06-01T13:42:23;16.50;99.90
47022;DHT22;32779;52.264;6.154;2023-06-01T13:44:49;16.50;99.90
47022;DHT22;32779;52.264;6.154;2023-06-01T13:47:14;16.50;99.90
47022;DHT22;32779;52.264;6.154;2023-06-01T13:49:43;16.50;99.90
47022;DHT22;32779;52.264;6.154;2023-06-01T13:52:10;16.50;99.90
47022;DHT22;32779;52.264;6.154;2023-06-01T13:54:36;16.50;99.90
47022;DHT22;32779;52.264;6.154;2023-06-01T13:57:01;16.50;99.90
47022;DHT22;32779;52.264;6.154;2023-06-01T13:59:28;16.40;99.90
47022;DHT22;32779;52.264;6.154;2023-06-01T14:01:58;16.40;99.90
47022;DHT22;32779;52.264;6.154;2023-06-01T14:04:24;16.50;99.90
47022;DHT22;32779;52.264;6.154;2023-06-01T14:06:50;16.60;99.90
47022;DHT22;32779;52.264;6.154;2023-06-01T14:09:16;16.60;99.90
47022;DHT22;32779;52.264;6.154;2023-06-01T14:11:42;16.70;99.90
47022;DHT22;32779;52.264;6.154;2023-06-01T14:14:08;16.70;99.90
47022;DHT22;32779;52.264;6.154;2023-06-01T14:16:34;16.50;99.90
47022;DHT22;32779;52.264;6.154;2023-06-01T14:18:59;16.50;99.90
47022;DHT22;32779;52.264;6.154;2023-06-01T14:21:25;16.60;99.90
47022;DHT22;32779;52.264;6.154;2023-06-01T14:23:50;16.70;99.90
47022;DHT22;32779;52.264;6.154;2023-06-01T14:26:16;16.80;99.90
47022;DHT22;32779;52.264;6.154;2023-06-01T14:28:42;16.80;99.90
47022;DHT22;32779;52.264;6.154;2023-06-01T14:31:07;16.70;99.90
47022;DHT22;32779;52.264;6.154;2023-06-01T14:33:33;16.60;99.90
47022;DHT22;32779;52.264;6.154;2023-06-01T14:35:58;16.70;99.90
47022;DHT22;32779;52.264;6.154;2023-06-01T14:38:24;16.60;99.90
47022;DHT22;32779;52.264;6.154;2023-06-01T14:40:50;16.60;99.90
47022;DHT22;32779;52.264;6.154;2023-06-01T14:43:15;16.60;99.90
47022;DHT22;32779;52.264;6.154;2023-06-01T14:45:41;16.60;99.90
47022;DHT22;32779;52.264;6.154;2023-06-01T14:48:06;16.70;99.90
47022;DHT22;32779;52.264;6.154;2023-06-01T14:50:32;16.80;99.90
47022;DHT22;32779;52.264;6.154;2023-06-01T14:52:57;16.60;99.90
47022;DHT22;32779;52.264;6.154;2023-06-01T14:55:28;16.40;99.90
47022;DHT22;32779;52.264;6.154;2023-06-01T14:57:54;16.50;99.90
47022;DHT22;32779;52.264;6.154;2023-06-01T15:00:20;16.60;99.90
47022;DHT22;32779;52.264;6.154;2023-06-01T15:02:46;16.60;99.90
47022;DHT22;32779;52.264;6.154;2023-06-01T15:05:12;16.50;99.90
47022;DHT22;32779;52.264;6.154;2023-06-01T15:07:38;16.60;99.90
47022;DHT22;32779;52.264;6.154;2023-06-01T15:10:03;16.60;99.90
47022;DHT22;32779;52.264;6.154;2023-06-01T15:12:29;16.60;99.90
47022;DHT22;32779;52.264;6.154;2023-06-01T15:14:55;16.70;99.90
47022;DHT22;32779;52.264;6.154;2023-06-01T15:17:20;16.70;99.90
47022;DHT22;32779;52.264;6.154;2023-06-01T15:19:46;16.80;99.90
47022;DHT22;32779;52.264;6.154;2023-06-01T15:22:12;16.90;99.90
47022;DHT22;32779;52.264;6.154;2023-06-01T15:24:38;16.90;99.90
47022;DHT22;32779;52.264;6.154;2023-06-01T15:27:06;17.00;99.90
47022;DHT22;32779;52.264;6.154;2023-06-01T15:29:32;16.90;99.90
47022;DHT22;32779;52.264;6.154;2023-06-01T15:31:58;16.70;99.90
47022;DHT22;32779;52.264;6.154;2023-06-01T15:34:23;16.80;99.90
47022;DHT22;32779;52.264;6.154;2023-06-01T15:36:49;16.70;99.90
47022;DHT22;32779;52.264;6.154;2023-06-01T15:39:15;16.70;99.90
47022;DHT22;32779;52.264;6.154;2023-06-01T15:41:41;16.80;99.90
47022;DHT22;32779;52.264;6.154;2023-06-01T15:44:07;16.90;99.90
47022;DHT22;32779;52.264;6.154;2023-06-01T15:46:32;16.80;99.90
47022;DHT22;32779;52.264;6.154;2023-06-01T15:48:58;16.80;99.90
47022;DHT22;32779;52.264;6.154;2023-06-01T15:51:23;16.80;99.90
47022;DHT22;32779;52.264;6.154;2023-06-01T15:53:49;16.70;99.90
47022;DHT22;32779;52.264;6.154;2023-06-01T15:56:16;16.80;99.90
47022;DHT22;32779;52.264;6.154;2023-06-01T15:58:42;16.60;99.90
47022;DHT22;32779;52.264;6.154;2023-06-01T16:01:08;16.60;99.90